Time;durP1;ratioP1;P1;durP2;ratioP2;P2;SDS_P1;SDS_P2;PMS_P1;PMS_P2;Temp;Humidity;BMP_temperature;BMP_pressure;BME280_temperature;BME280_humidity;BME280_pressure;Samples;Min_cycle;Max_cycle;Signal;HPM_P1;HPM_P2
2023/11/23 00:01:33;;;;;;;18.45;8.40;;;6.40;99.90;;;-144.05;65.75;57050.63;4980485;28;20034;-83
2023/11/23 00:04:00;;;;;;;15.02;8.43;;;;;;;-144.05;65.91;57010.25;4988386;28;20031;-83
2023/11/23 00:06:26;;;;;;;17.02;8.98;;;;;;;-144.05;66.52;57044.25;4986691;28;20041;-81
2023/11/23 00:08:52;;;;;;;19.65;8.70;;;;;;;-144.05;67.16;57063.34;4977066;28;20022;-84
2023/11/23 00:11:19;;;;;;;18.70;8.65;;;;;;;-144.05;67.85;57061.22;5023723;28;20096;-83
2023/11/23 00:13:45;;;;;;;14.05;8.15;;;;;;;-144.05;67.55;57027.25;4975202;28;20418;-84
2023/11/23 00:16:12;;;;;;;17.15;7.78;;;;;;;-144.05;68.54;57048.50;5000981;28;20082;-82
2023/11/23 00:18:38;;;;;;;16.95;8.60;;;;;;;-144.05;69.14;57025.13;4997541;28;20031;-83
2023/11/23 00:21:05;;;;;;;16.33;8.50;;;;;;;-144.05;68.89;57061.22;4975649;28;20034;-83
2023/11/23 00:23:31;;;;;;;20.67;10.23;;;;;;;-144.05;69.09;57031.50;5025460;28;20024;-82
2023/11/23 00:25:58;;;;;;;15.40;8.80;;;;;;;-144.05;69.28;57078.22;5027708;28;20025;-84
2023/11/23 00:28:24;;;;;;;22.30;9.82;;;;;;;-144.05;69.67;57050.63;4974352;28;20464;-81
2023/11/23 00:30:50;;;;;;;20.10;9.10;;;;;;;-144.05;70.64;57035.75;4973763;28;20506;-82
2023/11/23 00:33:17;;;;;;;18.17;9.77;;;;;;;-144.05;70.93;57035.75;4990345;28;20019;-86
2023/11/23 00:35:43;;;;;;;15.48;8.35;;;;;;;-144.05;71.05;57052.75;4975368;28;20037;-81
2023/11/23 00:38:11;;;;;;;23.45;9.32;;;;;;;-144.05;71.87;57040.00;4974656;28;20037;-80
2023/11/23 00:40:38;;;;;;;20.02;9.18;;;;;;;-144.05;72.32;57031.50;4989240;28;20054;-82
2023/11/23 00:43:04;;;;;;;19.38;9.30;;;;;;;-144.05;72.73;57046.38;4973248;28;20031;-82
2023/11/23 00:45:30;;;;;;;22.40;9.98;;;;;;;-144.05;72.70;57056.97;5039962;28;20092;-80
2023/11/23 00:47:56;;;;;;;23.10;10.35;;;;;;;-144.05;72.77;57040.00;4986581;28;20027;-84
2023/11/23 00:50:23;;;;;;;16.48;9.23;;;;;;;-144.05;72.73;57040.00;4975841;28;20475;-84
2023/11/23 00:52:49;;;;;;;21.15;9.10;;;;;;;-144.05;72.93;57003.88;5004933;28;20118;-83
2023/11/23 00:55:15;;;;;;;19.83;9.32;;;;;;;-144.05;73.47;57027.25;4992959;28;20033;-82
2023/11/23 00:57:41;;;;;;;17.10;9.93;;;;;;;-144.05;72.88;57042.13;5000420;28;20085;-83
2023/11/23 01:00:09;;;;;;;24.20;9.48;;;;;;;-144.05;73.32;56999.63;4986458;28;20050;-83
2023/11/23 01:02:36;;;;;;;18.42;8.98;;;;;;;-144.05;73.33;57044.25;4988364;28;20979;-84
2023/11/23 01:05:03;;;;;;;16.90;9.38;;;;;;;-144.05;73.54;56993.25;5028459;28;20025;-81
2023/11/23 01:07:29;;;;;;;20.95;10.70;;;;;;;-144.05;74.06;57014.50;4989790;28;20111;-81
2023/11/23 01:09:55;;;;;;;20.23;9.57;;;;;;;-144.05;74.02;57069.72;4987544;28;20419;-82
2023/11/23 01:12:21;;;;;;;25.40;10.45;;;;;;;-144.05;74.54;57012.38;4977015;28;20054;-85
2023/11/23 01:14:48;;;;;;;19.27;10.05;;;;;;;-144.05;74.24;57040.00;4999203;28;20093;-83
2023/11/23 01:17:14;;;;;;;17.50;10.48;;;;;;;-144.05;74.54;57010.25;4978837;28;20061;-86
2023/11/23 01:19:40;;;;;;;21.98;10.35;;;;;;;-144.05;75.00;57033.63;4974420;28;20073;-83
2023/11/23 01:22:07;;;;;;;24.90;10.57;;;;;;;-144.05;75.21;57020.88;4988602;28;20028;-82
2023/11/23 01:24:33;;;;;;;22.60;11.70;;;;;;;-144.05;75.47;57046.38;4982527;28;20036;-83
2023/11/23 01:26:59;;;;;;;17.83;10.15;;;;;;;-144.05;76.02;57025.13;4971383;28;20031;-83
2023/11/23 01:29:25;;;;;;;23.17;10.90;;;;;;;-144.05;76.08;57056.97;4979711;28;20499;-83
2023/11/23 01:31:51;;;;;;;26.30;12.57;;;;;;;-144.05;77.18;57027.25;4969188;28;20115;-83
2023/11/23 01:34:17;;;;;;;23.80;11.40;;;;;;;-144.05;77.11;57052.75;4973012;28;20428;-83
2023/11/23 01:36:44;;;;;;;28.23;12.27;;;;;;;-144.05;78.39;57040.00;4970251;28;20047;-81
2023/11/23 01:39:11;;;;;;;23.70;11.68;;;;;;;-144.05;78.65;57050.63;4972745;28;20027;-83
2023/11/23 01:41:38;;;;;;;23.85;12.27;;;;;;;-144.05;79.25;57012.38;4981108;28;20049;-83
2023/11/23 01:44:05;;;;;;;27.85;12.90;;;;;;;-144.05;79.72;57059.09;4973188;28;20106;-81
2023/11/23 01:46:31;;;;;;;26.42;13.45;;;;;;;-144.05;80.00;57046.38;5011496;28;20023;-82
2023/11/23 01:49:01;;;;;;;23.33;11.68;;;6.40;99.90;;;-144.05;80.91;56993.25;4975296;28;20027;-82
2023/11/23 01:51:28;;;;;;;26.08;12.63;;;;;;;-144.05;81.32;57056.97;4974128;28;20038;-83
2023/11/23 01:53:54;;;;;;;25.10;12.25;;;;;;;-144.05;80.54;57031.50;4971659;28;20025;-84
2023/11/23 01:56:24;;;;;;;26.15;14.10;;;6.40;99.90;;;-144.05;81.34;57050.63;4972271;28;20399;-81
2023/11/23 01:58:52;;;;;;;21.70;12.77;;;;;;;-144.05;81.67;57027.25;4978836;28;20484;-83
2023/11/23 02:01:18;;;;;;;30.60;13.43;;;;;;;-144.05;82.10;57023.00;4969670;28;20052;-80
2023/11/23 02:03:46;;;;;;;25.23;12.38;;;;;;;-144.05;82.65;57001.75;4974374;28;20047;-84
2023/11/23 02:06:14;;;;;;;27.13;13.32;;;;;;;-144.05;83.26;57044.25;4988982;28;20035;-81
2023/11/23 02:08:41;;;;;;;30.02;15.50;;;;;;;-144.05;83.56;57035.75;4973895;28;20033;-82
2023/11/23 02:11:08;;;;;;;28.33;13.35;;;;;;;-144.05;83.73;57040.00;4976387;28;20441;-85
2023/11/23 02:13:35;;;;;;;27.30;13.68;;;;;;;-144.05;83.95;57010.25;5037103;28;20032;-85
2023/11/23 02:16:01;;;;;;;28.50;14.23;;;;;;;-144.05;84.62;57035.75;4989745;28;20475;-83
2023/11/23 02:18:28;;;;;;;26.48;13.50;;;;;;;-144.05;84.26;57040.00;4987501;28;20515;-82
2023/11/23 02:20:54;;;;;;;28.90;14.75;;;;;;;-144.05;85.39;57016.63;4975725;28;20529;-81
2023/11/23 02:23:20;;;;;;;26.63;14.15;;;;;;;-144.05;84.99;57031.50;4974052;28;20507;-84
2023/11/23 02:25:46;;;;;;;31.98;13.77;;;;;;;-144.05;85.64;57040.00;4976339;28;20566;-84
2023/11/23 02:28:13;;;;;;;26.67;14.20;;;;;;;-144.05;85.06;57031.50;4972894;28;20031;-81
2023/11/23 02:30:39;;;;;;;25.90;14.02;;;;;;;-144.05;85.70;57054.88;4981534;28;20031;-84
2023/11/23 02:33:08;;;;;;;33.25;13.88;;;;;;;-144.05;85.71;57023.00;4987816;28;20049;-84
2023/11/23 02:35:34;;;;;;;27.17;13.98;;;;;;;-144.05;85.72;57014.50;4990818;28;20028;-83
2023/11/23 02:38:01;;;;;;;30.05;15.02;;;;;;;-144.05;85.26;57001.75;4986845;28;20081;-82
2023/11/23 02:40:27;;;;;;;29.80;13.32;;;;;;;-144.05;85.50;57012.38;4973578;28;20059;-84
2023/11/23 02:42:53;;;;;;;24.58;13.35;;;;;;;-144.05;85.67;57031.50;4987448;28;20041;-84
2023/11/23 02:45:19;;;;;;;30.05;14.23;;;;;;;-144.05;85.59;57033.63;4983241;28;20058;-83
2023/11/23 02:47:46;;;;;;;24.65;13.90;;;;;;;-144.05;85.31;57046.38;4982951;28;20027;-82
2023/11/23 02:50:12;;;;;;;24.13;14.07;;;;;;;-144.05;85.81;57044.25;4976862;28;20065;-83
2023/11/23 02:52:38;;;;;;;30.63;14.65;;;;;;;-144.05;85.42;57027.25;4985213;28;20054;-86
2023/11/23 02:55:05;;;;;;;27.00;15.05;;;;;;;-144.05;86.22;57023.00;4990300;28;20118;-82
2023/11/23 02:57:31;;;;;;;28.40;14.25;;;;;;;-144.05;85.85;57042.13;4975295;28;20113;-84
2023/11/23 02:59:58;;;;;;;26.17;13.85;;;;;;;-144.05;86.02;57046.38;4989601;28;20118;-83
2023/11/23 03:02:24;;;;;;;25.75;14.48;;;;;;;-144.05;86.25;57025.13;4996194;28;20032;-82
2023/11/23 03:04:50;;;;;;;29.00;14.60;;;;;;;-144.05;85.88;57046.38;4972615;28;20479;-85
2023/11/23 03:07:17;;;;;;;27.58;13.38;;;;;;;-144.05;86.64;57001.75;4970043;28;20061;-83
2023/11/23 03:09:43;;;;;;;33.35;14.90;;;;;;;-144.05;86.83;57052.75;4974606;28;20051;-81
2023/11/23 03:12:10;;;;;;;27.10;14.57;;;;;;;-144.05;87.63;57018.75;4977870;28;20027;-83
2023/11/23 03:14:37;;;;;;;35.08;15.98;;;;;;;-144.05;87.03;57020.88;4982052;28;20038;-84
2023/11/23 03:17:06;;;;;;;34.30;15.88;;;;;;;-144.05;87.13;56965.66;4980458;28;20031;-84
2023/11/23 03:19:32;;;;;;;33.22;16.00;;;;;;;-144.05;87.30;56993.25;4981218;28;20033;-82
2023/11/23 03:21:58;;;;;;;29.13;15.38;;;;;;;-144.05;88.42;57023.00;4974331;28;20055;-84
2023/11/23 03:24:24;;;;;;;33.03;17.30;;;;;;;-144.05;88.43;57063.34;4973467;28;20027;-82
2023/11/23 03:26:51;;;;;;;34.30;16.77;;;;;;;-144.05;88.17;57012.38;4972822;28;20029;-84
2023/11/23 03:29:17;;;;;;;32.63;17.38;;;;;;;-144.05;88.30;57059.09;4973497;28;20042;-85
2023/11/23 03:31:43;;;;;;;30.38;16.08;;;;;;;-144.05;88.57;57031.50;4974569;28;20029;-81
2023/11/23 03:34:10;;;;;;;35.17;17.48;;;;;;;-144.05;88.91;57069.72;5020652;28;20031;-83
2023/11/23 03:36:36;;;;;;;31.35;16.83;;;;;;;-144.05;88.41;57029.38;4983246;28;20038;-81
2023/11/23 03:39:02;;;;;;;30.60;17.77;;;;;;;-144.05;88.70;57048.50;4996751;28;20087;-86
2023/11/23 03:41:29;;;;;;;33.78;18.27;;;;;;;-144.05;89.29;57016.63;4986498;28;20028;-83
2023/11/23 03:43:57;;;;;;;30.50;17.35;;;;;;;-144.05;88.98;57025.13;4991213;28;20038;-83
2023/11/23 03:46:23;;;;;;;32.78;17.13;;;;;;;-144.05;89.65;57010.25;4972764;28;20392;-84
2023/11/23 03:48:49;;;;;;;31.55;18.08;;;;;;;-144.05;89.85;57027.25;4988566;28;20431;-84
2023/11/23 03:51:16;;;;;;;32.00;17.17;;;;;;;-144.05;89.63;57020.88;5007368;28;20034;-82
2023/11/23 03:53:42;;;;;;;32.58;18.45;;;;;;;-144.05;89.76;57065.47;4988770;28;20027;-83
2023/11/23 03:56:18;;;;;;;33.20;17.73;;;7.90;99.90;;;-144.05;90.64;57040.00;4968285;28;20035;-84
2023/11/23 03:58:44;;;;;;;32.72;18.40;;;;;;;-144.05;90.06;57040.00;4973329;28;20031;-83
2023/11/23 04:01:11;;;;;;;35.53;18.80;;;;;;;-144.05;90.19;56978.41;5010199;28;20055;-84
2023/11/23 04:03:44;;;;;;;38.55;19.45;;;7.20;99.90;;;-144.05;89.77;57029.38;5016958;28;20188;-85
2023/11/23 04:06:11;;;;;;;37.95;19.08;;;;;;;-144.05;89.41;57020.88;4968385;28;20027;-81
2023/11/23 04:08:40;;;;;;;35.88;19.33;;;7.30;99.90;;;-144.05;89.98;57046.38;5009230;28;20406;-86
2023/11/23 04:11:06;;;;;;;37.10;18.38;;;;;;;-144.05;89.79;57042.13;4973237;28;20406;-84
2023/11/23 04:13:32;;;;;;;30.52;19.08;;;;;;;-144.05;89.90;57042.13;4992015;28;20098;-85
2023/11/23 04:15:59;;;;;;;34.35;18.95;;;;;;;-144.05;89.89;57006.00;4973313;28;20054;-83
2023/11/23 04:18:25;;;;;;;34.80;19.20;;;;;;;-144.05;89.62;57014.50;4971883;28;20424;-82
2023/11/23 04:20:51;;;;;;;38.78;18.80;;;;;;;-144.05;90.21;57027.25;4973520;28;20033;-82
2023/11/23 04:23:17;;;;;;;38.97;20.98;;;;;;;-144.05;89.86;57016.63;4976315;28;20392;-83
2023/11/23 04:25:44;;;;;;;34.95;19.05;;;;;;;-144.05;90.16;57027.25;4969927;28;20110;-85
2023/11/23 04:28:10;;;;;;;33.63;18.83;;;;;;;-144.05;89.73;57025.13;4972192;28;20113;-84
2023/11/23 04:30:36;;;;;;;36.17;19.10;;;;;;;-144.05;89.88;57063.34;4971561;28;20054;-82
2023/11/23 04:33:03;;;;;;;32.47;18.65;;;;;;;-144.05;89.46;57016.63;4972659;28;20523;-82
2023/11/23 04:35:29;;;;;;;39.42;20.27;;;;;;;-144.05;89.22;56997.50;4971722;28;20046;-81
2023/11/23 04:37:55;;;;;;;37.55;20.33;;;;;;;-144.05;89.17;57010.25;4968598;28;20047;-85
2023/11/23 04:40:21;;;;;;;40.25;20.20;;;;;;;-144.05;89.46;57018.75;4972859;28;20031;-83
2023/11/23 04:42:48;;;;;;;46.20;20.95;;;;;;;-144.05;89.23;57012.38;4972600;28;20088;-82
2023/11/23 04:45:14;;;;;;;36.90;20.38;;;;;;;-144.05;89.11;57014.50;5004287;28;20029;-82
2023/11/23 04:47:40;;;;;;;41.67;20.70;;;;;;;-144.05;89.05;57042.13;4976622;28;20046;-83
2023/11/23 04:50:07;;;;;;;39.22;20.48;;;;;;;-144.05;89.06;57029.38;4988241;28;20023;-84
2023/11/23 04:52:33;;;;;;;42.00;20.75;;;;;;;-144.05;88.83;57029.38;4978276;28;20023;-84
2023/11/23 04:54:59;;;;;;;46.00;21.20;;;;;;;-144.05;89.21;57001.75;4973302;28;20026;-84
2023/11/23 04:57:26;;;;;;;44.10;21.25;;;;;;;-144.05;89.31;57016.63;4991505;28;20015;-84
2023/11/23 04:59:52;;;;;;;43.35;21.60;;;;;;;-144.05;89.21;57012.38;4991497;28;20025;-82
2023/11/23 05:02:19;;;;;;;39.80;20.90;;;;;;;-144.05;88.78;57006.00;5000759;28;20484;-85
2023/11/23 05:04:46;;;;;;;42.13;22.90;;;;;;;-144.05;89.43;57016.63;4993484;28;20035;-84
2023/11/23 05:07:12;;;;;;;43.80;22.98;;;;;;;-144.05;89.44;57016.63;5010846;28;20045;-84
2023/11/23 05:09:38;;;;;;;44.95;23.70;;;;;;;-144.05;89.88;57003.88;4973638;28;20456;-86
2023/11/23 05:12:05;;;;;;;44.05;22.55;;;;;;;-144.05;89.75;57031.50;5000698;28;20027;-84
2023/11/23 05:14:31;;;;;;;53.80;25.45;;;;;;;-144.05;89.61;56995.38;4971588;28;20046;-83
2023/11/23 05:16:58;;;;;;;43.30;23.60;;;;;;;-144.05;89.35;57027.25;4972715;28;20041;-83
2023/11/23 05:19:24;;;;;;;42.25;22.52;;;;;;;-144.05;89.31;57027.25;4972136;28;20422;-86
2023/11/23 05:21:50;;;;;;;43.65;24.13;;;;;;;-144.05;90.03;57020.88;5001318;28;20023;-83
2023/11/23 05:24:17;;;;;;;44.78;24.58;;;;;;;-144.05;89.43;57044.25;4967243;28;20059;-86
2023/11/23 05:26:44;;;;;;;47.33;24.02;;;;;;;-144.05;89.85;57012.38;4994146;28;20022;-84
2023/11/23 05:29:10;;;;;;;40.58;22.20;;;;;;;-144.05;89.36;57031.50;4972007;28;20503;-84
2023/11/23 05:31:37;;;;;;;40.33;23.38;;;;;;;-144.05;89.24;57014.50;5003126;28;20082;-85
2023/11/23 05:34:03;;;;;;;45.10;23.17;;;;;;;-144.05;89.45;57040.00;4986628;28;20053;-86
2023/11/23 05:36:29;;;;;;;47.38;24.05;;;;;;;-144.05;89.13;56999.63;4978410;28;20030;-87
2023/11/23 05:38:55;;;;;;;46.78;24.10;;;;;;;-144.05;88.89;57006.00;4974918;28;20033;-86
2023/11/23 05:41:22;;;;;;;50.97;24.40;;;;;;;-144.05;90.03;57006.00;4990135;28;20059;-85
2023/11/23 05:43:50;;;;;;;42.80;23.42;;;;;;;-144.05;89.52;57006.00;4993305;28;20069;-85
2023/11/23 05:46:17;;;;;;;39.38;22.70;;;;;;;-144.05;88.48;57029.38;4967281;28;20736;-83
2023/11/23 05:48:43;;;;;;;43.25;23.55;;;;;;;-144.05;88.62;57023.00;4973673;28;20058;-83
2023/11/23 05:51:09;;;;;;;42.58;20.83;;;;;;;-144.05;88.55;57016.63;4971902;28;20368;-84
2023/11/23 05:53:35;;;;;;;40.28;21.77;;;;;;;-144.05;88.46;57018.75;4976692;28;20084;-83
2023/11/23 05:56:03;;;;;;;42.75;22.40;;;;;;;-144.05;87.80;57018.75;4987161;28;20057;-84
2023/11/23 05:58:30;;;;;;;40.38;23.25;;;;;;;-144.05;88.43;57018.75;4972596;28;20035;-83
2023/11/23 06:00:56;;;;;;;43.88;23.58;;;;;;;-144.05;87.95;57020.88;4973056;28;20034;-85
2023/11/23 06:03:22;;;;;;;40.20;22.48;;;;;;;-144.05;87.80;57012.38;4987541;28;20065;-84
2023/11/23 06:05:49;;;;;;;39.72;22.20;;;;;;;-144.05;88.17;57010.25;4972055;28;20030;-85
2023/11/23 06:08:15;;;;;;;46.45;23.45;;;;;;;-144.05;87.71;57052.75;4987755;28;20024;-82
2023/11/23 06:10:42;;;;;;;33.80;21.50;;;;;;;-144.05;88.27;57006.00;4995144;28;20494;-83
2023/11/23 06:13:10;;;;;;;39.00;21.58;;;;;;;-144.05;87.91;56999.63;4974132;28;20054;-84
2023/11/23 06:15:36;;;;;;;40.58;20.98;;;;;;;-144.05;87.72;57010.25;4978556;28;20027;-85
2023/11/23 06:18:03;;;;;;;43.38;21.48;;;;;;;-144.05;87.41;56993.25;4993126;28;20114;-86
2023/11/23 06:20:29;;;;;;;35.95;21.70;;;;;;;-144.05;87.65;57025.13;5001236;28;20035;-84
2023/11/23 06:22:56;;;;;;;39.75;20.85;;;;;;;-144.05;87.72;57018.75;4976399;28;20027;-86
2023/11/23 06:25:22;;;;;;;39.13;20.20;;;;;;;-144.05;87.80;56995.38;4999555;28;20491;-87
2023/11/23 06:27:48;;;;;;;41.15;21.95;;;;;;;-144.05;87.54;57003.88;4975491;28;20027;-83
2023/11/23 06:30:20;;;;;;;34.78;20.27;;;8.70;99.90;;;-144.05;86.91;57018.75;5003932;28;20036;-83
2023/11/23 06:32:46;;;;;;;43.33;20.13;;;;;;;-144.05;87.57;57023.00;4985188;28;20027;-84
2023/11/23 06:35:13;;;;;;;32.47;20.33;;;;;;;-144.05;87.32;57016.63;5029150;28;20027;-82
2023/11/23 06:37:39;;;;;;;35.17;20.20;;;;;;;-144.05;88.00;57006.00;4976307;28;20531;-81
2023/11/23 06:40:07;;;;;;;34.35;20.13;;;;;;;-144.05;87.25;57008.13;4986165;28;20508;-82
2023/11/23 06:42:33;;;;;;;34.10;20.02;;;;;;;-144.05;86.80;56991.13;4988666;28;20031;-85
2023/11/23 06:45:00;;;;;;;36.38;20.63;;;;;;;-144.05;86.30;57010.25;5003177;28;20049;-85
2023/11/23 06:47:26;;;;;;;36.35;20.25;;;;;;;-144.05;86.57;57003.88;4989427;28;20488;-79
2023/11/23 06:49:52;;;;;;;33.78;20.08;;;;;;;-144.05;86.21;57040.00;4975106;28;20103;-84
2023/11/23 06:52:18;;;;;;;35.05;19.60;;;7.50;99.90;;;-144.05;85.88;56959.28;4975472;28;20049;-81
2023/11/23 06:54:44;;;;;;;34.75;21.38;;;;;;;-144.05;86.55;57018.75;4982885;28;20454;-79
2023/11/23 06:57:11;;;;;;;37.35;21.05;;;;;;;-144.05;87.43;56993.25;4976241;28;20034;-81
2023/11/23 06:59:38;;;;;;;34.40;20.65;;;;;;;-144.05;86.84;57006.00;5014584;28;20112;-82
2023/11/23 07:02:04;;;;;;;36.85;19.55;;;8.90;99.90;;;-144.05;86.77;57016.63;4980808;28;20077;-80
2023/11/23 07:04:31;;;;;;;33.30;20.00;;;;;;;-144.05;86.65;57010.25;5032359;28;20512;-80
2023/11/23 07:06:57;;;;;;;36.42;20.67;;;;;;;-144.05;86.61;56995.38;4969837;28;20554;-81
2023/11/23 07:09:23;;;;;;;34.85;21.45;;;;;;;-144.05;86.34;57012.38;4972275;28;20050;-81
2023/11/23 07:11:53;;;;;;;33.95;21.10;;;;;;;-144.05;86.87;56980.53;4970990;28;20035;-83
2023/11/23 07:14:21;;;;;;;37.17;21.63;;;;;;;-144.05;87.07;57035.75;4968711;28;20054;-82
2023/11/23 07:16:51;;;;;;;34.90;21.38;;;;;;;-144.05;87.14;57008.13;4973235;28;20035;-82
2023/11/23 07:19:21;;;;;;;42.53;23.70;;;;;;;-144.05;87.23;57023.00;4968470;28;20050;-82
2023/11/23 07:21:50;;;;;;;37.55;21.90;;;8.90;99.90;;;-144.05;86.29;57006.00;4971894;28;20496;-80
2023/11/23 07:24:16;;;;;;;38.03;22.20;;;;;;;-144.05;86.55;57008.13;4982112;28;20015;-80
2023/11/23 07:26:42;;;;;;;38.10;23.30;;;7.10;99.90;;;-144.05;86.30;56982.66;4977956;28;20031;-82
2023/11/23 07:29:08;;;;;;;39.70;22.08;;;7.10;99.90;;;-144.05;86.65;57008.13;4972136;28;20034;-79
2023/11/23 07:31:36;;;;;;;37.90;23.08;;;;;;;-144.05;86.80;57016.63;4974818;28;20064;-75
2023/11/23 07:34:03;;;;;;;38.00;22.50;;;7.10;99.90;;;-144.05;86.34;57003.88;4970708;28;20395;-76
2023/11/23 07:36:30;;;;;;;42.50;21.92;;;;;;;-144.05;86.17;56976.28;4995713;28;20035;-77
2023/11/23 07:38:56;;;;;;;39.15;22.92;;;9.10;99.90;;;-144.05;86.06;56989.00;4971648;28;20393;-77
2023/11/23 07:41:22;;;;;;;38.95;22.33;;;;;;;-144.05;85.94;57014.50;4972066;28;20031;-77
2023/11/23 07:43:49;;;;;;;41.67;23.20;;;;;;;-144.05;86.24;57031.50;4971259;28;20038;-76
2023/11/23 07:46:15;;;;;;;36.50;21.42;;;;;;;-144.05;86.52;56993.25;4970545;28;20027;-76
2023/11/23 07:48:41;;;;;;;40.10;22.02;;;;;;;-144.05;85.84;57003.88;4972109;28;20041;-77
2023/11/23 07:51:08;;;;;;;41.75;21.85;;;;;;;-144.05;86.77;57006.00;4973736;28;20131;-78
2023/11/23 07:53:34;;;;;;;42.75;22.67;;;;;;;-144.05;86.99;57010.25;4972494;28;20118;-79
2023/11/23 07:56:00;;;;;;;38.85;23.73;;;6.90;99.90;;;-144.05;87.23;57016.63;4972403;28;20049;-78
2023/11/23 07:58:26;;;;;;;43.58;23.63;;;;;;;-144.05;87.01;57008.13;4970629;28;20031;-78
2023/11/23 08:00:52;;;;;;;39.90;24.08;;;;;;;-144.05;87.30;57029.38;4971047;28;20039;-79
2023/11/23 08:03:18;;;;;;;38.33;23.75;;;;;;;-144.05;87.13;57029.38;4971250;28;20054;-78
2023/11/23 08:05:45;;;;;;;41.78;22.52;;;;;;;-144.05;86.88;56995.38;4971702;28;20041;-78
2023/11/23 08:08:12;;;;;;;40.47;23.70;;;;;;;-144.05;87.83;57014.50;4969578;28;20491;-77
2023/11/23 08:10:38;;;;;;;41.58;24.33;;;7.60;99.90;;;-144.05;87.15;57012.38;4969867;28;20027;-78
2023/11/23 08:13:04;;;;;;;41.60;24.90;;;7.00;99.90;;;-144.05;87.54;57006.00;4969709;28;20029;-78
2023/11/23 08:15:30;;;;;;;41.22;24.10;;;;;;;-144.05;87.73;56980.53;5000006;28;20030;-76
2023/11/23 08:17:57;;;;;;;44.97;24.45;;;;;;;-144.05;86.88;57001.75;4969668;28;20495;-76
2023/11/23 08:20:26;;;;;;;34.85;22.92;;;;;;;-144.05;86.90;56965.66;4971349;28;20033;-79
2023/11/23 08:22:52;;;;;;;40.17;23.15;;;14.60;99.90;;;-144.05;87.47;56999.63;4970856;28;20392;-79
2023/11/23 08:25:19;;;;;;;36.63;22.35;;;;;;;-144.05;87.51;57018.75;4969859;28;20031;-77
2023/11/23 08:27:45;;;;;;;39.10;22.48;;;14.30;99.90;;;-144.05;86.83;56995.38;4970712;28;20487;-78
2023/11/23 08:30:12;;;;;;;38.53;21.63;;;7.10;99.90;;;-144.05;86.91;56980.53;4973422;28;20549;-77
2023/11/23 08:32:38;;;;;;;38.42;24.13;;;7.70;99.90;;;-144.05;86.45;56995.38;4970934;28;20484;-78
2023/11/23 08:35:08;;;;;;;37.80;22.23;;;;;;;-144.05;87.15;57012.38;4970916;28;20081;-78
2023/11/23 08:37:34;;;;;;;36.55;22.30;;;;;;;-144.05;86.72;57008.13;4971291;28;20031;-77
2023/11/23 08:40:00;;;;;;;40.38;23.02;;;;;;;-144.05;86.67;57012.38;4972250;28;20023;-76
2023/11/23 08:42:26;;;;;;;44.38;22.17;;;11.00;99.90;;;-144.05;86.47;56997.50;4973814;28;20031;-79
2023/11/23 08:44:52;;;;;;;37.75;23.02;;;;;;;-144.05;86.22;56999.63;4969612;28;20034;-77
2023/11/23 08:47:18;;;;;;;36.17;21.05;;;7.60;99.90;;;-144.05;86.69;57006.00;5012230;28;20568;-79
2023/11/23 08:49:44;;;;;;;34.72;21.60;;;;;;;-144.05;86.74;57010.25;4967107;28;20118;-75
2023/11/23 08:52:11;;;;;;;40.33;22.35;;;;;;;-144.05;86.78;57003.88;4970571;28;20031;-75
2023/11/23 08:54:37;;;;;;;38.72;23.20;;;11.00;99.90;;;-144.05;86.69;57010.25;4970291;28;20090;-76
2023/11/23 08:57:03;;;;;;;33.58;20.77;;;7.20;99.90;;;-144.05;86.87;57001.75;4970271;28;20492;-76
2023/11/23 08:59:30;;;;;;;33.75;21.75;;;;;;;-144.05;86.61;57027.25;4970891;28;20114;-77
2023/11/23 09:01:55;;;;;;;37.00;20.55;;;7.40;99.90;;;-144.05;86.02;56952.91;4970108;28;20027;-77
2023/11/23 09:04:22;;;;;;;36.83;20.30;;;7.10;99.90;;;-144.05;85.44;56993.25;4970078;28;20030;-76
2023/11/23 09:06:48;;;;;;;32.47;20.52;;;8.00;99.90;;;-144.05;86.18;57018.75;4970059;28;20031;-78
2023/11/23 09:09:14;;;;;;;32.42;20.52;;;7.40;99.90;;;-144.05;85.92;57010.25;4969885;28;20035;-76
2023/11/23 09:11:41;;;;;;;36.35;21.83;;;7.80;99.90;;;-144.05;86.33;57001.75;4968862;28;20034;-78
2023/11/23 09:14:09;;;;;;;32.80;20.35;;;6.70;99.90;;;-144.05;85.64;56984.78;4969996;28;20042;-76
2023/11/23 09:16:35;;;;;;;32.38;18.85;;;;;;;-144.05;85.01;57031.50;4985251;28;20455;-75
2023/11/23 09:19:01;;;;;;;36.22;21.05;;;10.90;99.90;;;-144.05;85.84;56997.50;4973070;28;20115;-76
2023/11/23 09:21:27;;;;;;;31.73;19.92;;;;;;;-144.05;86.05;56976.28;4971908;28;20050;-75
2023/11/23 09:23:53;;;;;;;31.63;19.60;;;11.00;99.90;;;-144.05;86.63;56993.25;4975869;28;20035;-76
2023/11/23 09:26:19;;;;;;;34.53;19.90;;;11.10;99.90;;;-144.05;85.36;56976.28;4973723;28;20035;-77
2023/11/23 09:28:45;;;;;;;27.17;18.02;;;;;;;-144.05;85.29;57001.75;4970804;28;20080;-78
2023/11/23 09:31:13;;;;;;;29.52;17.98;;;10.70;99.90;;;-144.05;85.60;56995.38;4970895;28;20045;-76
2023/11/23 09:33:39;;;;;;;30.10;18.77;;;;;;;-144.05;85.44;57010.25;4985435;28;20081;-77
2023/11/23 09:36:06;;;;;;;30.85;18.83;;;7.90;99.90;;;-144.05;86.12;56978.41;4970365;28;20142;-77
2023/11/23 09:38:32;;;;;;;29.20;18.75;;;;;;;-144.05;85.96;57006.00;4970622;28;20450;-77
2023/11/23 09:40:59;;;;;;;27.33;18.20;;;11.30;99.90;;;-144.05;85.25;56999.63;4971542;28;20031;-76
2023/11/23 09:43:24;;;;;;;32.65;18.48;;;7.20;99.90;;;-144.05;85.39;56974.16;4971316;28;20033;-77
2023/11/23 09:45:51;;;;;;;31.20;18.77;;;9.70;99.90;;;-144.05;85.34;57006.00;4970837;28;20035;-77
2023/11/23 09:48:22;;;;;;;26.30;18.30;;;8.10;99.90;;;-144.05;85.66;56995.38;4963721;28;20162;-76
2023/11/23 09:50:47;;;;;;;33.53;19.10;;;8.60;99.90;;;-144.05;85.11;56997.50;4973820;28;20553;-76
2023/11/23 09:53:15;;;;;;;32.10;17.58;;;8.10;99.90;;;-144.05;85.32;57010.25;4974349;28;20114;-75
2023/11/23 09:55:42;;;;;;;28.23;17.10;;;;;;;-144.05;85.36;57014.50;4974250;28;20483;-78
2023/11/23 09:58:08;;;;;;;27.20;17.08;;;11.50;99.90;;;-144.05;84.83;56991.13;4988839;28;20035;-77
2023/11/23 10:00:35;;;;;;;24.20;16.38;;;;;;;-144.05;85.82;57003.88;4974229;28;20105;-78
2023/11/23 10:03:07;;;;;;;28.75;16.88;;;11.70;99.90;;;-144.05;85.52;57023.00;4974782;28;20023;-77
2023/11/23 10:05:33;;;;;;;29.42;18.65;;;7.60;99.90;;;-144.05;85.68;57018.75;4974960;28;20034;-78
2023/11/23 10:08:00;;;;;;;30.83;18.40;;;;;;;-144.05;85.70;56997.50;4988564;28;20035;-77
2023/11/23 10:10:28;;;;;;;26.52;17.45;;;;;;;-144.05;85.47;56989.00;4974222;28;20033;-79
2023/11/23 10:12:55;;;;;;;28.60;17.20;;;9.60;99.90;;;-144.05;84.84;56976.28;4973091;28;20103;-77
2023/11/23 10:15:23;;;;;;;25.63;17.77;;;14.10;99.90;;;-144.05;85.06;56976.28;4973966;28;20031;-78
2023/11/23 10:17:49;;;;;;;26.33;16.58;;;11.60;99.90;;;-144.05;85.14;56984.78;4971912;28;20403;-77
2023/11/23 10:20:15;;;;;;;31.55;17.75;;;;;;;-144.05;85.61;57014.50;4988618;28;20038;-77
2023/11/23 10:22:47;;;;;;;32.15;18.92;;;7.60;99.90;;;-144.05;86.28;56980.53;4971827;28;20033;-76
2023/11/23 10:25:37;;;;;;;32.78;17.05;;;9.90;99.90;;;-144.05;85.62;56984.78;4980049;28;20029;-75
2023/11/23 10:28:03;;;;;;;26.95;17.90;;;8.50;99.90;;;-144.05;85.03;56993.25;4980385;28;20124;-78
2023/11/23 10:30:31;;;;;;;28.40;17.73;;;;;;;-144.05;85.12;57003.88;4977937;28;20055;-78
2023/11/23 10:33:00;;;;;;;29.15;17.40;;;9.90;99.90;;;-144.05;85.23;57025.13;4980064;28;20073;-75
2023/11/23 10:35:43;;;;;;;25.50;18.05;;;9.90;99.90;;;-144.05;84.74;56972.03;4973992;28;20058;-78
2023/11/23 10:38:15;;;;;;;26.98;17.95;;;14.40;99.90;;;-144.05;84.91;56997.50;4986687;28;20027;-77
2023/11/23 10:40:42;;;;;;;24.85;16.25;;;;;;;-144.05;84.91;57012.38;4971452;28;20038;-77
2023/11/23 10:43:12;;;;;;;30.45;17.90;;;11.20;99.90;;;-144.05;84.74;56972.03;4971831;28;20026;-76
2023/11/23 10:45:42;;;;;;;28.67;18.27;;;9.90;99.90;;;-144.05;85.30;56997.50;4972915;28;20373;-76